Time;durP1;ratioP1;P1;durP2;ratioP2;P2;SDS_P1;SDS_P2;PMS_P1;PMS_P2;Temp;Humidity;BMP_temperature;BMP_pressure;BME280_temperature;BME280_humidity;BME280_pressure;Samples;Min_cycle;Max_cycle;Signal;HPM_P1;HPM_P2
2022/06/19 00:01:57;;;;;;;12.65;2.72;;;24.40;99.90;;;;;;4997198;28;20278;-77
2022/06/19 00:04:23;;;;;;;9.13;2.60;;;24.50;99.30;;;;;;5014527;28;20257;-77
2022/06/19 00:06:49;;;;;;;9.80;2.75;;;24.50;98.70;;;;;;4997429;28;20179;-77
2022/06/19 00:09:14;;;;;;;10.02;2.83;;;24.60;99.00;;;;;;4997259;28;20191;-78
2022/06/19 00:11:40;;;;;;;9.77;2.80;;;24.60;98.90;;;;;;4981283;28;20175;-78
2022/06/19 00:14:07;;;;;;;8.65;2.53;;;24.60;98.30;;;;;;4997757;28;20566;-77
2022/06/19 00:16:32;;;;;;;8.10;2.50;;;24.70;98.30;;;;;;5013468;28;20175;-76
2022/06/19 00:18:58;;;;;;;12.07;2.72;;;24.60;99.40;;;;;;4997549;28;20185;-78
2022/06/19 00:21:24;;;;;;;8.55;2.85;;;24.50;99.30;;;;;;4997147;28;20187;-78
2022/06/19 00:23:49;;;;;;;11.98;3.25;;;24.50;99.90;;;;;;4980557;28;20207;-77
2022/06/19 00:26:15;;;;;;;9.65;3.38;;;24.30;99.90;;;;;;5013565;28;20175;-77
2022/06/19 00:28:44;;;;;;;11.07;3.50;;;24.10;99.90;;;;;;4997426;28;20183;-77
2022/06/19 00:31:10;;;;;;;9.77;3.80;;;23.80;99.90;;;;;;5013017;28;20198;-77
2022/06/19 00:33:36;;;;;;;10.38;3.80;;;23.40;99.90;;;;;;5013090;28;20175;-77
2022/06/19 00:36:02;;;;;;;8.00;3.83;;;23.10;99.90;;;;;;5012721;28;20345;-77
2022/06/19 00:38:28;;;;;;;10.75;4.22;;;22.90;99.90;;;;;;5012814;28;20665;-77
2022/06/19 00:40:58;;;;;;;8.55;3.90;;;22.70;99.90;;;;;;4996137;28;20222;-77
2022/06/19 00:43:24;;;;;;;8.30;4.10;;;22.50;99.90;;;;;;4995648;28;20175;-77
2022/06/19 00:45:51;;;;;;;9.90;3.80;;;22.30;99.90;;;;;;5012086;28;20693;-77
2022/06/19 00:48:24;;;;;;;7.72;3.67;;;22.20;99.90;;;;;;5014586;28;20261;-77
2022/06/19 00:50:52;;;;;;;8.30;3.22;;;22.00;99.90;;;;;;5033372;28;20177;-77
2022/06/19 00:53:24;;;;;;;10.55;2.83;;;22.10;99.90;;;;;;5014138;28;20181;-77
2022/06/19 00:55:51;;;;;;;7.85;2.67;;;22.30;99.90;;;;;;5032989;28;20193;-77
2022/06/19 00:58:22;;;;;;;6.90;2.65;;;22.60;99.90;;;;;;5016520;28;20182;-77
2022/06/19 01:00:53;;;;;;;7.82;2.88;;;22.80;99.90;;;;;;5036016;28;20233;-77
2022/06/19 01:03:23;;;;;;;7.95;2.67;;;23.10;99.90;;;;;;5020154;28;20178;-77
2022/06/19 01:05:49;;;;;;;11.43;3.10;;;23.20;99.90;;;;;;4999472;28;20238;-77
2022/06/19 01:08:15;;;;;;;6.18;3.55;;;23.20;99.90;;;;;;5031543;28;20257;-77
2022/06/19 01:10:44;;;;;;;12.10;4.30;;;22.90;99.90;;;;;;5031254;28;20182;-77
2022/06/19 01:13:11;;;;;;;9.48;4.38;;;22.50;99.90;;;;;;5014612;28;20178;-76
2022/06/19 01:15:38;;;;;;;8.38;4.10;;;22.30;99.90;;;;;;5014950;28;20202;-77
2022/06/19 01:18:07;;;;;;;9.55;3.78;;;22.10;99.90;;;;;;5014671;28;20190;-77
2022/06/19 01:20:34;;;;;;;6.90;3.78;;;22.00;99.90;;;;;;5014722;28;20217;-77
2022/06/19 01:23:38;;;;;;;9.90;3.88;;;21.80;99.90;;;;;;5014686;28;20186;-77
2022/06/19 01:26:04;;;;;;;10.10;3.63;;;21.60;99.90;;;;;;5032712;28;20181;-79
2022/06/19 01:28:54;;;;;;;8.90;3.67;;;21.50;99.90;;;;;;5031256;28;20206;-77
2022/06/19 01:31:30;;;;;;;8.23;3.95;;;21.30;99.90;;;;;;5030996;28;20194;-77
2022/06/19 01:34:26;;;;;;;10.85;3.53;;;20.90;99.90;;;;;;4999303;28;20174;-77
2022/06/19 01:36:51;;;;;;;9.27;3.50;;;20.80;99.90;;;;;;5035212;28;20201;-77
2022/06/19 01:39:17;;;;;;;7.45;3.10;;;20.80;99.90;;;;;;5035030;28;20280;-76
2022/06/19 01:41:42;;;;;;;9.93;3.35;;;20.90;99.90;;;;;;5002111;28;20571;-77
2022/06/19 01:44:08;;;;;;;9.50;3.40;;;21.10;99.90;;;;;;5001977;28;20217;-77
2022/06/19 01:46:33;;;;;;;8.93;3.15;;;21.10;99.90;;;;;;5002037;28;20197;-77
2022/06/19 01:48:59;;;;;;;8.38;3.80;;;21.20;99.90;;;;;;5002059;28;20200;-77
2022/06/19 01:51:24;;;;;;;7.72;3.15;;;21.10;99.90;;;;;;5001718;28;20181;-77
2022/06/19 01:54:04;;;;;;;11.00;3.53;;;21.10;99.90;;;;;;5018187;28;20247;-77
2022/06/19 01:56:30;;;;;;;11.32;3.88;;;21.30;99.90;;;;;;5034572;28;20644;-77
2022/06/19 01:58:59;;;;;;;9.73;3.15;;;21.40;99.90;;;;;;5034737;28;20301;-77
2022/06/19 02:01:26;;;;;;;6.40;3.10;;;21.60;99.90;;;;;;5001932;28;20186;-77
2022/06/19 02:03:56;;;;;;;9.10;3.20;;;21.60;99.90;;;;;;5018187;28;20251;-77
2022/06/19 02:06:31;;;;;;;9.77;3.13;;;21.60;99.90;;;;;;5072740;23;20327;-77
2022/06/19 02:08:59;;;;;;;10.63;3.00;;;21.60;99.90;;;;;;5017972;28;20178;-77
2022/06/19 02:11:26;;;;;;;10.90;2.97;;;21.70;99.90;;;;;;5001654;28;20174;-77
2022/06/19 02:13:53;;;;;;;9.57;3.35;;;21.80;99.90;;;;;;5034180;28;20170;-77
2022/06/19 02:16:21;;;;;;;7.65;2.95;;;21.90;99.90;;;;;;5017999;28;20273;-77
2022/06/19 02:18:49;;;;;;;5.30;2.72;;;22.00;99.90;;;;;;5035435;28;20173;-77
2022/06/19 02:21:31;;;;;;;7.38;2.92;;;21.80;99.90;;;;;;5017649;28;20234;-77
2022/06/19 02:23:57;;;;;;;10.25;3.20;;;21.70;99.90;;;;;;5019845;28;20183;-77
2022/06/19 02:26:23;;;;;;;7.95;2.90;;;21.40;99.90;;;;;;5017599;28;20190;-77
2022/06/19 02:28:50;;;;;;;7.38;3.05;;;21.30;99.90;;;;;;5034240;28;20225;-77
2022/06/19 02:31:18;;;;;;;10.15;3.17;;;21.20;99.90;;;;;;5017808;28;20182;-77
2022/06/19 02:33:48;;;;;;;10.32;3.15;;;21.20;99.90;;;;;;5034980;28;20170;-77
2022/06/19 02:36:33;;;;;;;10.50;3.28;;;21.00;99.90;;;;;;5001457;28;20248;-77
2022/06/19 02:39:08;;;;;;;8.93;2.88;;;20.90;99.90;;;;;;5033937;28;20174;-77
2022/06/19 02:41:42;;;;;;;8.02;3.03;;;20.70;99.90;;;;;;5033832;28;20166;-77
2022/06/19 02:44:08;;;;;;;8.48;2.40;;;20.80;99.90;;;;;;5033664;28;20194;-77
2022/06/19 02:46:33;;;;;;;11.30;3.03;;;20.90;99.90;;;;;;5000037;28;20205;-77
2022/06/19 02:49:02;;;;;;;9.15;2.88;;;21.00;99.90;;;;;;5000089;28;20189;-77
2022/06/19 02:51:28;;;;;;;8.23;2.65;;;20.90;99.90;;;;;;5051453;28;20231;-77
2022/06/19 02:53:53;;;;;;;7.05;3.03;;;20.90;99.90;;;;;;5020842;28;20180;-77
2022/06/19 02:56:19;;;;;;;9.63;2.83;;;20.90;99.90;;;;;;5020884;28;20289;-77
2022/06/19 02:58:44;;;;;;;7.50;3.05;;;20.80;99.90;;;;;;5020858;28;20639;-77
2022/06/19 03:01:10;;;;;;;10.32;3.33;;;20.90;99.90;;;;;;5020750;28;20222;-77
2022/06/19 03:03:36;;;;;;;8.27;3.05;;;20.90;99.90;;;;;;5020481;28;20166;-77
2022/06/19 03:06:03;;;;;;;7.35;3.55;;;20.80;99.90;;;;;;5037049;28;20213;-77
2022/06/19 03:08:29;;;;;;;10.73;2.78;;;20.80;99.90;;;;;;5053979;28;20185;-77
2022/06/19 03:10:55;;;;;;;8.13;2.90;;;20.70;99.90;;;;;;5054029;28;20537;-77
2022/06/19 03:13:21;;;;;;;10.65;2.90;;;20.60;99.90;;;;;;5053586;28;20174;-77
2022/06/19 03:15:57;;;;;;;10.02;3.00;;;20.50;99.90;;;;;;5053911;28;20190;-77
2022/06/19 03:18:23;;;;;;;8.68;3.10;;;20.30;99.90;;;;;;5038348;28;20174;-77
2022/06/19 03:20:48;;;;;;;9.90;2.60;;;20.30;99.90;;;;;;5036915;28;20200;-77
2022/06/19 03:23:14;;;;;;;10.15;3.05;;;20.30;99.90;;;;;;5020208;28;20174;-77
2022/06/19 03:25:39;;;;;;;9.20;3.10;;;20.20;99.90;;;;;;5020179;28;20189;-77
2022/06/19 03:28:05;;;;;;;9.73;3.05;;;20.30;99.90;;;;;;5020450;28;20668;-77
2022/06/19 03:30:31;;;;;;;6.97;2.95;;;20.40;99.90;;;;;;5020574;28;20177;-77
2022/06/19 03:32:56;;;;;;;7.43;3.13;;;20.40;99.90;;;;;;5019984;28;20180;-77
2022/06/19 03:35:23;;;;;;;8.27;3.13;;;20.50;99.90;;;;;;5020610;28;20201;-77
2022/06/19 03:37:48;;;;;;;9.05;3.08;;;20.60;99.90;;;;;;5053178;28;20216;-77
2022/06/19 03:40:14;;;;;;;7.72;3.10;;;20.60;99.90;;;;;;5053072;28;20225;-77
2022/06/19 03:42:40;;;;;;;7.20;2.78;;;20.70;99.90;;;;;;5036647;28;20182;-77
2022/06/19 03:45:06;;;;;;;10.27;2.78;;;20.90;99.90;;;;;;5054142;28;20193;-77
2022/06/19 03:47:32;;;;;;;9.05;2.80;;;21.00;99.90;;;;;;5053026;28;20183;-77
2022/06/19 03:49:57;;;;;;;10.77;2.83;;;21.10;99.90;;;;;;5020136;28;20273;-77
2022/06/19 03:52:23;;;;;;;8.68;2.70;;;21.20;99.90;;;;;;5036203;28;20178;-77
2022/06/19 03:54:48;;;;;;;10.82;2.97;;;21.30;99.90;;;;;;5019885;28;20201;-77
2022/06/19 03:57:14;;;;;;;9.52;2.75;;;21.40;99.90;;;;;;5036256;28;20189;-77
2022/06/19 03:59:40;;;;;;;7.50;2.95;;;21.50;99.90;;;;;;5035438;28;20189;-76
2022/06/19 04:02:08;;;;;;;7.47;2.80;;;21.80;99.90;;;;;;5036173;28;20260;-77
2022/06/19 04:04:35;;;;;;;8.27;2.90;;;22.00;99.90;;;;;;5052931;28;20185;-76
2022/06/19 04:07:00;;;;;;;6.55;2.75;;;22.10;99.90;;;;;;5020063;28;20169;-75
2022/06/19 04:09:26;;;;;;;8.70;3.47;;;22.40;99.90;;;;;;5019721;28;20194;-75
2022/06/19 04:11:52;;;;;;;10.65;3.35;;;22.50;99.90;;;;;;5035821;28;20178;-78
2022/06/19 04:14:17;;;;;;;6.20;2.90;;;22.70;99.90;;;;;;5035799;28;20197;-75
2022/06/19 04:16:43;;;;;;;4.28;2.55;;;22.80;99.90;;;;;;5035758;28;20239;-75
2022/06/19 04:19:09;;;;;;;9.55;3.13;;;22.90;99.90;;;;;;5036040;28;20180;-75
2022/06/19 04:21:41;;;;;;;8.18;2.97;;;23.00;99.90;;;;;;5052215;28;20184;-75
2022/06/19 04:24:09;;;;;;;9.73;2.97;;;23.10;99.90;;;;;;5053499;28;20154;-75
2022/06/19 04:26:37;;;;;;;8.18;2.97;;;23.30;99.90;;;;;;5019475;28;20268;-75
2022/06/19 04:29:04;;;;;;;6.85;2.53;;;23.60;99.90;;;;;;5035836;28;20182;-75
2022/06/19 04:31:30;;;;;;;8.75;3.28;;;23.60;99.90;;;;;;5052071;28;20209;-75
2022/06/19 04:34:02;;;;;;;9.05;3.13;;;23.60;99.90;;;;;;5051907;28;20182;-74
2022/06/19 04:36:29;;;;;;;7.97;3.00;;;23.60;99.90;;;;;;5052156;28;20190;-76
2022/06/19 04:38:56;;;;;;;7.38;2.85;;;23.50;99.90;;;;;;5051939;28;20181;-75
2022/06/19 04:41:31;;;;;;;8.10;2.78;;;23.60;99.90;;;;;;5051821;28;20284;-75
2022/06/19 04:43:58;;;;;;;8.05;3.20;;;23.60;99.90;;;;;;5053017;28;20207;-77
2022/06/19 04:46:24;;;;;;;6.20;2.92;;;23.70;99.90;;;;;;5051857;28;20186;-76
2022/06/19 04:48:50;;;;;;;9.40;3.00;;;23.70;99.90;;;;;;5035464;28;20220;-76
2022/06/19 04:51:17;;;;;;;9.70;2.78;;;23.90;99.90;;;;;;5023244;28;20178;-75
2022/06/19 04:53:43;;;;;;;11.93;3.00;;;24.10;99.90;;;;;;5015206;28;20244;-76
2022/06/19 04:56:11;;;;;;;9.57;2.55;;;24.20;99.90;;;;;;5031638;28;20578;-76
2022/06/19 04:58:37;;;;;;;10.57;2.55;;;24.20;99.90;;;;;;5015658;28;20642;-76
2022/06/19 05:01:09;;;;;;;10.40;2.70;;;24.30;99.90;;;;;;5031653;28;20205;-76
2022/06/19 05:03:35;;;;;;;6.32;2.50;;;24.40;99.90;;;;;;5031876;28;20171;-75
2022/06/19 05:06:00;;;;;;;10.10;2.80;;;24.50;99.90;;;;;;5014922;28;20217;-75
2022/06/19 05:08:26;;;;;;;11.73;2.65;;;24.60;99.90;;;;;;5015484;28;20189;-75
2022/06/19 05:10:52;;;;;;;10.95;2.65;;;24.90;98.90;;;;;;4998520;28;20174;-75
2022/06/19 05:13:19;;;;;;;8.82;2.78;;;25.00;98.60;;;;;;4998697;28;20186;-75
2022/06/19 05:15:46;;;;;;;8.13;2.47;;;25.10;97.80;;;;;;5031395;28;20198;-75
2022/06/19 05:18:12;;;;;;;11.85;2.95;;;25.20;96.50;;;;;;5032781;28;20217;-75
2022/06/19 05:20:38;;;;;;;11.35;3.08;;;25.50;95.10;;;;;;5015018;28;20198;-75
2022/06/19 05:23:05;;;;;;;7.60;2.47;;;25.60;94.30;;;;;;5015129;28;20182;-75
2022/06/19 05:25:31;;;;;;;12.93;2.65;;;25.80;93.80;;;;;;5015201;28;20555;-75
2022/06/19 05:27:57;;;;;;;12.40;3.05;;;25.90;93.00;;;;;;5015257;28;20181;-75
2022/06/19 05:30:22;;;;;;;10.68;2.90;;;26.00;92.10;;;;;;5015073;28;20197;-75
2022/06/19 05:32:48;;;;;;;10.95;3.03;;;26.10;91.90;;;;;;5015120;28;20274;-75
2022/06/19 05:35:14;;;;;;;8.82;2.70;;;26.10;92.40;;;;;;5014810;28;20249;-75
2022/06/19 05:37:39;;;;;;;6.60;2.53;;;26.10;92.10;;;;;;5031612;28;20177;-76
2022/06/19 05:40:06;;;;;;;10.10;2.60;;;26.20;92.00;;;;;;5014792;28;20202;-76
2022/06/19 05:42:32;;;;;;;11.32;3.22;;;26.20;91.80;;;;;;5031058;28;20224;-76
2022/06/19 05:44:57;;;;;;;7.82;2.38;;;26.20;92.20;;;;;;5031528;28;20186;-76
2022/06/19 05:47:23;;;;;;;8.20;2.63;;;26.30;91.20;;;;;;5015048;28;20209;-77
2022/06/19 05:49:48;;;;;;;8.95;2.67;;;26.30;91.30;;;;;;5014961;28;20178;-76
2022/06/19 05:52:18;;;;;;;8.55;2.60;;;26.40;91.10;;;;;;4998704;28;20178;-77
2022/06/19 05:54:45;;;;;;;11.20;2.80;;;26.40;90.90;;;;;;4998834;28;20341;-77
2022/06/19 05:57:10;;;;;;;10.98;3.22;;;26.50;91.00;;;;;;5032388;28;20174;-76
2022/06/19 05:59:36;;;;;;;13.43;3.22;;;26.60;90.30;;;;;;5014838;28;20202;-76
2022/06/19 06:02:02;;;;;;;7.30;2.70;;;26.60;90.70;;;;;;5014580;28;20174;-76
2022/06/19 06:04:27;;;;;;;10.18;3.05;;;26.70;90.30;;;;;;5014781;28;20186;-75
2022/06/19 06:06:53;;;;;;;11.35;2.63;;;26.80;90.20;;;;;;5031113;28;20578;-75
2022/06/19 06:09:19;;;;;;;7.28;2.83;;;26.80;90.50;;;;;;5014662;28;20171;-75
2022/06/19 06:11:45;;;;;;;10.05;2.83;;;26.80;90.90;;;;;;5031198;28;20273;-76
2022/06/19 06:14:11;;;;;;;11.15;3.13;;;26.80;90.50;;;;;;5014765;28;20703;-77
2022/06/19 06:16:36;;;;;;;7.93;2.78;;;26.80;90.30;;;;;;5014862;28;20175;-77
2022/06/19 06:19:03;;;;;;;11.18;2.92;;;26.90;90.50;;;;;;5014624;28;20174;-77
2022/06/19 06:21:29;;;;;;;10.90;2.92;;;26.90;90.50;;;;;;5015624;28;20259;-77
2022/06/19 06:23:55;;;;;;;9.73;2.60;;;27.00;90.60;;;;;;5018053;28;20577;-76
2022/06/19 06:26:24;;;;;;;11.05;3.38;;;27.00;89.80;;;;;;5018109;28;20194;-76
2022/06/19 06:28:52;;;;;;;10.93;3.03;;;27.10;90.20;;;;;;5034738;28;20637;-76
2022/06/19 06:31:18;;;;;;;12.48;2.97;;;27.10;89.50;;;;;;5034528;28;20625;-76
2022/06/19 06:33:43;;;;;;;11.38;2.90;;;27.10;89.10;;;;;;5034592;28;20186;-75
2022/06/19 06:36:10;;;;;;;8.35;2.80;;;27.20;89.80;;;;;;5001543;28;20194;-75
2022/06/19 06:38:36;;;;;;;9.35;2.95;;;27.20;89.40;;;;;;5035469;28;20240;-77
2022/06/19 06:41:04;;;;;;;8.93;3.00;;;27.30;89.70;;;;;;5017772;28;20202;-77
2022/06/19 06:43:29;;;;;;;9.40;2.75;;;27.20;88.30;;;;;;5034197;28;20712;-76
2022/06/19 06:46:06;;;;;;;10.95;2.97;;;27.30;89.90;;;;;;5001399;28;20527;-76
2022/06/19 06:48:32;;;;;;;9.95;3.13;;;27.30;89.60;;;;;;5017633;28;20166;-76
2022/06/19 06:50:58;;;;;;;9.55;2.95;;;27.40;90.10;;;;;;5014446;28;20258;-76
2022/06/19 06:53:23;;;;;;;7.70;2.70;;;27.40;90.20;;;;;;5045608;28;20185;-76
2022/06/19 06:55:49;;;;;;;8.70;3.33;;;27.50;90.60;;;;;;5021196;28;20206;-76
2022/06/19 06:58:14;;;;;;;10.52;3.17;;;27.50;91.00;;;;;;5021223;28;20180;-76
2022/06/19 07:00:40;;;;;;;13.23;3.85;;;27.60;90.80;;;;;;5053919;28;20198;-76
2022/06/19 07:03:06;;;;;;;9.43;3.60;;;27.70;90.70;;;;;;5037426;28;20201;-75
2022/06/19 07:05:32;;;;;;;6.72;3.03;;;27.70;91.30;;;;;;5053614;28;20658;-76
2022/06/19 07:07:59;;;;;;;11.70;3.60;;;27.80;91.50;;;;;;5054000;28;20185;-76
2022/06/19 07:10:25;;;;;;;8.32;3.47;;;27.90;90.60;;;;;;5037503;28;20182;-79
2022/06/19 07:12:50;;;;;;;10.85;3.40;;;27.90;90.90;;;;;;5037110;28;20554;-76
2022/06/19 07:15:16;;;;;;;8.45;3.38;;;28.00;91.00;;;;;;5053634;28;20656;-76
2022/06/19 07:17:42;;;;;;;8.88;3.58;;;28.00;91.50;;;;;;5053742;28;20224;-76
2022/06/19 07:20:09;;;;;;;13.93;4.20;;;28.10;91.30;;;;;;5036957;28;20200;-76
2022/06/19 07:22:35;;;;;;;10.52;4.00;;;28.10;90.40;;;;;;5053290;28;20188;-79
2022/06/19 07:25:05;;;;;;;11.90;4.30;;;28.20;91.20;;;;;;5036921;28;20736;-76
2022/06/19 07:27:31;;;;;;;9.52;3.97;;;28.30;91.60;;;;;;5020895;28;20174;-76
2022/06/19 07:29:56;;;;;;;10.07;4.75;;;28.30;91.30;;;;;;5037109;28;20658;-76
2022/06/19 07:32:22;;;;;;;6.60;3.95;;;28.30;90.80;;;;;;5036672;28;20323;-76
2022/06/19 07:34:48;;;;;;;11.63;4.40;;;28.40;91.10;;;;;;5036910;28;20272;-77
2022/06/19 07:37:14;;;;;;;12.68;4.22;;;28.40;90.60;;;;;;5037049;28;20548;-78
2022/06/19 07:39:40;;;;;;;8.65;4.25;;;28.60;91.00;;;;;;5053417;28;20193;-78
2022/06/19 07:42:08;;;;;;;11.82;4.38;;;28.70;90.90;;;;;;5053420;28;20181;-77
2022/06/19 07:44:35;;;;;;;13.80;5.00;;;28.80;90.40;;;;;;5036881;28;20593;-77
2022/06/19 07:52:31;;;;;;;13.35;4.30;;;28.90;90.40;;;;;;5039212;28;20172;-76
2022/06/19 07:54:57;;;;;;;9.63;4.22;;;29.00;90.00;;;;;;5019732;28;20201;-76
2022/06/19 07:57:23;;;;;;;10.23;4.18;;;29.00;88.50;;;;;;5019732;28;20205;-76
2022/06/19 07:59:48;;;;;;;11.35;4.38;;;28.90;89.80;;;;;;5036053;28;20201;-77
2022/06/19 08:02:14;;;;;;;10.13;4.60;;;28.90;90.50;;;;;;5036300;28;20197;-76
2022/06/19 08:04:39;;;;;;;9.05;4.30;;;29.00;90.30;;;;;;5026931;23;20205;-77
2022/06/19 08:07:05;;;;;;;12.18;4.68;;;29.20;90.60;;;;;;5014902;28;20195;-77
2022/06/19 08:09:31;;;;;;;9.63;4.70;;;29.30;90.40;;;;;;5015624;28;20185;-77
2022/06/19 08:11:56;;;;;;;8.65;4.93;;;29.30;90.40;;;;;;5031911;28;20182;-78
2022/06/19 08:14:22;;;;;;;9.75;4.70;;;29.30;90.70;;;;;;5015791;28;20190;-77
2022/06/19 08:16:48;;;;;;;8.20;4.53;;;29.40;90.70;;;;;;4999456;28;20245;-77
2022/06/19 08:19:14;;;;;;;8.98;4.82;;;29.50;90.70;;;;;;4999246;28;20174;-77
2022/06/19 08:21:39;;;;;;;11.52;5.07;;;29.40;90.50;;;;;;5015371;28;20180;-77
2022/06/19 08:24:05;;;;;;;10.50;5.18;;;29.40;90.50;;;;;;4998789;28;20193;-77
2022/06/19 08:26:31;;;;;;;9.10;4.65;;;29.30;90.60;;;;;;4999278;28;20198;-77
2022/06/19 08:29:00;;;;;;;9.13;4.82;;;29.30;90.50;;;;;;4999251;28;20320;-77
2022/06/19 08:31:26;;;;;;;11.10;5.00;;;29.30;91.00;;;;;;5031702;28;20174;-77
2022/06/19 08:33:51;;;;;;;9.25;5.05;;;29.40;91.00;;;;;;4999247;28;20189;-77
2022/06/19 08:36:18;;;;;;;7.97;4.85;;;29.60;91.10;;;;;;4999161;28;20195;-76
2022/06/19 08:38:47;;;;;;;10.07;4.65;;;29.60;90.60;;;;;;5016069;28;20181;-76
2022/06/19 08:41:44;;;;;;;8.90;4.60;;;29.70;91.00;;;;;;5031863;28;20222;-77
2022/06/19 08:44:46;;;;;;;11.57;5.07;;;29.90;90.70;;;;;;5031476;28;20167;-76
2022/06/19 08:47:49;;;;;;;9.63;5.03;;;30.00;90.90;;;;;;5031218;28;20170;-77
2022/06/19 08:50:53;;;;;;;12.55;5.43;;;30.00;90.30;;;;;;5032789;28;20180;-77
2022/06/19 08:53:34;;;;;;;9.13;5.03;;;30.20;90.90;;;;;;5034350;28;20189;-76
2022/06/19 08:56:12;;;;;;;10.00;5.03;;;30.40;90.60;;;;;;5032067;28;20194;-77
2022/06/19 08:58:47;;;;;;;9.20;5.03;;;30.40;90.70;;;;;;5032050;28;20170;-77
2022/06/19 09:01:26;;;;;;;6.90;5.15;;;30.60;90.50;;;;;;5031956;28;20630;-76
2022/06/19 09:07:11;;;;;;;10.82;5.10;;;30.80;90.00;;;;;;5032786;28;20213;-77
2022/06/19 09:10:01;;;;;;;7.35;4.88;;;31.00;88.50;;;;;;5032570;28;20185;-76
2022/06/19 09:12:58;;;;;;;11.48;5.28;;;30.70;89.20;;;;;;5031591;28;20170;-78
2022/06/19 09:15:42;;;;;;;10.60;5.75;;;30.80;90.10;;;;;;5031637;28;20198;-76
2022/06/19 09:18:39;;;;;;;10.57;5.63;;;30.90;87.90;;;;;;5031947;28;20166;-76
2022/06/19 09:21:26;;;;;;;9.30;5.25;;;31.10;89.20;;;;;;5031493;28;20190;-77
2022/06/19 09:24:04;;;;;;;9.95;5.78;;;31.20;87.20;;;;;;5031885;28;20246;-77
2022/06/19 09:26:54;;;;;;;9.82;4.90;;;31.50;86.30;;;;;;5031294;28;20194;-77
2022/06/19 09:29:28;;;;;;;9.57;5.43;;;31.60;85.50;;;;;;5031687;28;20165;-77
2022/06/19 09:32:01;;;;;;;13.18;5.47;;;31.80;85.80;;;;;;5032401;28;20155;-76
2022/06/19 09:34:57;;;;;;;9.45;5.22;;;31.90;83.30;;;;;;5031316;28;20162;-77
2022/06/19 09:37:45;;;;;;;8.88;5.30;;;32.00;84.60;;;;;;5031642;28;20178;-76
2022/06/19 09:40:23;;;;;;;10.48;5.68;;;31.70;83.30;;;;;;5031239;28;20194;-76
2022/06/19 09:43:06;;;;;;;9.15;5.55;;;31.50;85.10;;;;;;5031547;28;20177;-76
2022/06/19 09:45:42;;;;;;;11.13;5.88;;;31.60;84.70;;;;;;5031137;28;20186;-76
2022/06/19 09:48:21;;;;;;;13.00;5.38;;;31.60;87.70;;;;;;5031247;28;20162;-76
2022/06/19 09:51:10;;;;;;;12.07;5.65;;;31.50;85.10;;;;;;5031571;28;20166;-76
2022/06/19 09:54:04;;;;;;;9.10;5.32;;;31.40;83.50;;;;;;5032257;28;20209;-76
2022/06/19 09:56:58;;;;;;;11.40;5.40;;;31.40;84.60;;;;;;5032032;28;20220;-77
2022/06/19 09:59:37;;;;;;;9.20;5.43;;;31.60;83.30;;;;;;5035037;28;20171;-78
2022/06/19 10:02:27;;;;;;;13.52;6.05;;;31.90;83.90;;;;;;5035109;28;20162;-77
2022/06/19 10:04:59;;;;;;;10.90;6.03;;;31.80;84.60;;;;;;5033001;28;20174;-77
2022/06/19 10:07:37;;;;;;;11.25;6.00;;;32.20;84.40;;;;;;5054911;28;20189;-78
2022/06/19 10:10:28;;;;;;;11.60;5.60;;;32.30;83.30;;;;;;5038627;28;20174;-77
2022/06/19 10:12:57;;;;;;;9.30;5.40;;;32.40;84.60;;;;;;5034582;28;20175;-77
2022/06/19 10:15:31;;;;;;;8.63;6.10;;;32.50;80.90;;;;;;5017955;28;20198;-78
2022/06/19 10:18:04;;;;;;;8.38;5.90;;;32.40;80.90;;;;;;5034621;28;20616;-77
2022/06/19 10:20:50;;;;;;;7.18;5.40;;;32.30;82.60;;;;;;5032517;28;20209;-77
2022/06/19 10:23:27;;;;;;;10.52;5.95;;;32.40;82.70;;;;;;5015054;28;20201;-77
2022/06/19 10:26:11;;;;;;;8.18;6.07;;;32.20;81.40;;;;;;5014290;28;20561;-77
2022/06/19 10:28:39;;;;;;;10.85;5.90;;;32.40;81.20;;;;;;5016988;28;20163;-77
2022/06/19 10:31:17;;;;;;;11.38;5.57;;;32.20;81.10;;;;;;5034449;28;20179;-77
2022/06/19 10:34:09;;;;;;;9.65;5.43;;;32.40;82.20;;;;;;5034212;28;20178;-77
2022/06/19 10:36:57;;;;;;;9.15;6.25;;;32.50;81.40;;;;;;5034672;28;20209;-77
2022/06/19 10:39:31;;;;;;;9.05;6.15;;;32.60;81.00;;;;;;5034281;28;20174;-78
2022/06/19 10:42:06;;;;;;;9.40;6.03;;;32.60;81.80;;;;;;5034383;28;20220;-77
2022/06/19 10:44:50;;;;;;;10.23;8.50;;;32.80;82.20;;;;;;5034704;28;20162;-77
2022/06/19 10:47:40;;;;;;;10.52;6.45;;;33.00;80.80;;;;;;5034243;28;20742;-77
2022/06/19 10:50:21;;;;;;;9.02;6.05;;;33.00;78.40;;;;;;5035358;28;20241;-77
2022/06/19 10:52:53;;;;;;;9.32;6.22;;;32.90;77.50;;;;;;5034193;28;20202;-77
2022/06/19 10:55:36;;;;;;;10.68;6.10;;;32.90;77.80;;;;;;5033907;28;20281;-77
2022/06/19 10:58:21;;;;;;;12.20;6.38;;;33.10;77.70;;;;;;5034480;28;20174;-77
2022/06/19 11:00:51;;;;;;;8.30;6.13;;;33.30;76.30;;;;;;5018139;28;20186;-77
2022/06/19 11:04:07;;;;;;;11.23;6.00;;;33.10;75.50;;;;;;5033877;28;20162;-78
2022/06/19 11:06:37;;;;;;;13.70;6.13;;;33.40;75.60;;;;;;5021835;28;20300;-77
2022/06/19 11:09:20;;;;;;;10.57;5.82;;;33.50;75.40;;;;;;5033444;28;20170;-77
2022/06/19 11:11:47;;;;;;;10.32;6.80;;;33.90;75.60;;;;;;5002055;28;20174;-78
2022/06/19 11:14:29;;;;;;;15.50;10.02;;;34.00;74.00;;;;;;5017263;28;20182;-77
2022/06/19 11:17:13;;;;;;;10.57;6.20;;;33.90;73.90;;;;;;5017246;28;20673;-77
2022/06/19 11:19:46;;;;;;;9.13;6.75;;;34.00;72.60;;;;;;5019441;28;20297;-77
2022/06/19 11:22:24;;;;;;;10.57;6.32;;;34.10;73.30;;;;;;5017231;28;20167;-77
2022/06/19 11:24:50;;;;;;;127.75;84.88;;;34.00;72.20;;;;;;5033742;28;20190;-77
2022/06/19 11:27:26;;;;;;;23.20;14.95;;;34.10;73.00;;;;;;5033833;28;20174;-77
2022/06/19 11:29:54;;;;;;;14.90;10.68;;;34.40;73.00;;;;;;5033708;28;20640;-78
2022/06/19 11:32:25;;;;;;;847.63;567.90;;;34.40;70.90;;;;;;5033113;28;20645;-78
2022/06/19 11:35:05;;;;;;;89.50;60.00;;;34.30;73.30;;;;;;5017205;28;20185;-78
2022/06/19 11:37:50;;;;;;;12.95;7.40;;;34.30;71.50;;;;;;5033648;28;20170;-78
2022/06/19 11:40:19;;;;;;;10.95;8.13;;;34.30;71.80;;;;;;5033238;28;20197;-78
2022/06/19 11:42:53;;;;;;;13.57;7.40;;;34.40;72.60;;;;;;5016492;28;20217;-78
2022/06/19 11:45:18;;;;;;;22.65;14.43;;;34.70;72.80;;;;;;5034310;28;20205;-78
2022/06/19 11:47:47;;;;;;;50.13;27.52;;;34.90;71.10;;;;;;5033084;28;20550;-78
2022/06/19 11:50:18;;;;;;;13.20;7.13;;;34.90;71.90;;;;;;5033073;28;20218;-78
2022/06/19 11:52:49;;;;;;;19.35;10.95;;;34.90;70.60;;;;;;5016654;28;20171;-78
2022/06/19 11:55:21;;;;;;;16.25;8.68;;;34.90;71.30;;;;;;5033043;28;20244;-78
2022/06/19 11:57:50;;;;;;;27.73;22.23;;;34.70;68.80;;;;;;5032957;28;20198;-78
2022/06/19 12:00:43;;;;;;;12.93;9.45;;;34.90;70.30;;;;;;5032780;28;20205;-78
2022/06/19 12:03:31;;;;;;;9.30;6.07;;;35.10;70.00;;;;;;5030252;28;20174;-78
2022/06/19 12:06:01;;;;;;;9.95;5.82;;;35.20;69.80;;;;;;5032853;28;20210;-78
2022/06/19 12:08:34;;;;;;;10.95;6.60;;;35.00;68.30;;;;;;5032919;28;20629;-78
2022/06/19 12:11:02;;;;;;;12.45;6.75;;;34.70;70.90;;;;;;5032942;28;20174;-78
2022/06/19 12:13:35;;;;;;;11.43;6.20;;;34.90;68.30;;;;;;5032370;28;20200;-78
2022/06/19 12:16:03;;;;;;;10.45;6.53;;;35.10;70.30;;;;;;5032526;28;20190;-78
2022/06/19 12:18:32;;;;;;;13.65;6.85;;;35.20;70.50;;;;;;5015712;28;20182;-78
2022/06/19 12:21:03;;;;;;;11.55;6.40;;;35.40;68.60;;;;;;5031985;28;20194;-78
2022/06/19 12:23:37;;;;;;;8.68;6.22;;;35.60;66.80;;;;;;5032277;28;20202;-78
2022/06/19 12:26:06;;;;;;;8.75;5.88;;;35.60;65.60;;;;;;5032505;28;20191;-78
2022/06/19 12:28:55;;;;;;;8.85;6.07;;;35.40;66.80;;;;;;5016181;28;20575;-78
2022/06/19 12:31:31;;;;;;;13.23;5.85;;;35.20;66.20;;;;;;5027004;28;20664;-78
2022/06/19 12:34:11;;;;;;;10.13;6.38;;;35.30;66.10;;;;;;5031504;28;20179;-78
2022/06/19 12:36:37;;;;;;;10.48;6.05;;;35.20;65.50;;;;;;5019646;28;20203;-76
2022/06/19 12:39:14;;;;;;;10.00;5.57;;;35.30;64.30;;;;;;5012092;28;20273;-77
2022/06/19 12:41:57;;;;;;;9.38;6.28;;;35.20;65.80;;;;;;5012344;28;20194;-77
2022/06/19 12:44:35;;;;;;;13.15;6.07;;;35.20;65.00;;;;;;5012357;28;20181;-78
2022/06/19 12:47:13;;;;;;;10.18;6.03;;;35.10;62.90;;;;;;5012222;28;20170;-78
2022/06/19 12:49:59;;;;;;;9.30;5.93;;;35.00;62.90;;;;;;5012287;28;20246;-78
2022/06/19 12:52:53;;;;;;;12.13;6.05;;;35.00;64.60;;;;;;5020758;28;20166;-78
2022/06/19 12:55:47;;;;;;;8.38;5.65;;;35.40;63.30;;;;;;5031469;28;20224;-78
2022/06/19 12:58:38;;;;;;;9.52;5.80;;;35.60;62.20;;;;;;5027149;28;20621;-78
2022/06/19 13:01:03;;;;;;;14.13;5.63;;;35.30;61.80;;;;;;5034451;28;20191;-78
2022/06/19 13:03:29;;;;;;;10.18;6.10;;;35.40;62.10;;;;;;5011192;28;20178;-79
2022/06/19 13:06:06;;;;;;;10.07;6.07;;;35.60;61.60;;;;;;5011510;28;20624;-78
2022/06/19 13:08:52;;;;;;;9.98;6.43;;;35.60;61.00;;;;;;5012735;28;20317;-78
2022/06/19 13:11:29;;;;;;;9.80;5.80;;;35.30;62.20;;;;;;5011635;28;20174;-78